Terminal Aerodrome Forecast
Issued by NWS Billings, MT

Home | Current Version | Previous Version | Text Only | Print | Product List | Glossary On
Versions: 1 2 3 4 5 6 7 8 9 10 11 12 13 14 15 16 17 18 19 20 21 22 23 24 25
000
FTUS45 KBYZ 190520
TAFMLS
TAF
KMLS 190520Z 1906/2006 31012KT P6SM SKC
     FM190900 32008KT P6SM FEW080
     FM191500 32018G24KT P6SM SCT100=

USA.gov is the U.S. government's official web portal to all federal, state and local government web resources and services.